createdAt,value
2018-09-11T00:00:55.023Z,0.00
2018-09-11T00:01:55.009Z,0.00
2018-09-11T00:02:54.999Z,0.00
2018-09-11T00:03:54.988Z,0.00
2018-09-11T00:04:54.969Z,0.00
2018-09-11T00:05:54.957Z,0.00
2018-09-11T00:06:54.945Z,0.00
2018-09-11T00:07:54.931Z,0.00
2018-09-11T00:08:54.917Z,0.00
2018-09-11T00:09:54.906Z,0.00
2018-09-11T00:10:54.887Z,0.00
2018-09-11T00:11:54.874Z,0.00
2018-09-11T00:12:54.867Z,0.00
2018-09-11T00:13:54.851Z,0.00
2018-09-11T00:14:54.840Z,0.00
2018-09-11T00:15:54.821Z,0.00
2018-09-11T00:16:54.814Z,0.00
2018-09-11T00:17:54.795Z,0.00
2018-09-11T00:18:54.797Z,0.00
2018-09-11T00:19:54.768Z,0.00
2018-09-11T00:20:54.759Z,0.00
2018-09-11T00:21:54.744Z,0.00
2018-09-11T00:22:54.730Z,0.00
2018-09-11T00:23:54.712Z,0.00
2018-09-11T00:24:54.701Z,0.00
2018-09-11T00:25:54.695Z,0.00
2018-09-11T00:26:54.675Z,0.00
2018-09-11T00:27:54.661Z,0.00
2018-09-11T00:28:54.646Z,0.00
2018-09-11T00:29:54.640Z,0.00
2018-09-11T00:30:54.618Z,0.00
2018-09-11T00:31:54.608Z,0.00
2018-09-11T00:32:54.591Z,0.00
2018-09-11T00:33:54.583Z,0.00
2018-09-11T00:34:54.564Z,0.00
2018-09-11T00:35:54.558Z,0.00
2018-09-11T00:36:54.544Z,0.00
2018-09-11T00:37:54.527Z,0.00
2018-09-11T00:38:54.510Z,0.00
2018-09-11T00:39:54.500Z,0.00
2018-09-11T00:40:54.484Z,0.00
2018-09-11T00:41:54.474Z,0.00
2018-09-11T00:42:54.462Z,0.00
2018-09-11T00:43:54.442Z,0.00
2018-09-11T00:44:54.431Z,0.00
2018-09-11T00:45:54.420Z,0.00
2018-09-11T00:46:54.405Z,0.00
2018-09-11T00:47:54.390Z,0.00
2018-09-11T00:48:54.374Z,0.00
2018-09-11T00:49:54.363Z,0.00
2018-09-11T00:50:54.351Z,0.00
2018-09-11T00:51:54.419Z,0.00
2018-09-11T00:52:54.320Z,0.00
2018-09-11T00:53:54.309Z,0.00
2018-09-11T00:54:54.296Z,0.00
2018-09-11T00:55:54.282Z,0.00
2018-09-11T00:56:54.269Z,0.00
2018-09-11T00:57:54.254Z,0.00
2018-09-11T00:58:54.242Z,0.00
2018-09-11T00:59:54.225Z,0.00
2018-09-11T01:00:54.213Z,0.00
2018-09-11T01:01:54.200Z,0.00
2018-09-11T01:02:54.192Z,0.00
2018-09-11T01:03:54.169Z,0.00
2018-09-11T01:04:54.157Z,0.00
2018-09-11T01:05:54.144Z,0.00
2018-09-11T01:06:54.135Z,0.00
2018-09-11T01:07:54.117Z,0.00
2018-09-11T01:08:54.104Z,0.00
2018-09-11T01:09:54.092Z,0.00
2018-09-11T01:10:54.080Z,0.00
2018-09-11T01:11:54.064Z,0.00
2018-09-11T01:12:54.056Z,0.00
2018-09-11T01:13:54.032Z,0.00
2018-09-11T01:14:54.025Z,0.00
2018-09-11T01:15:54.005Z,0.00
2018-09-11T01:16:53.993Z,0.00
2018-09-11T01:17:53.983Z,0.00
2018-09-11T01:18:53.965Z,0.00
2018-09-11T01:19:53.951Z,0.00
2018-09-11T01:20:53.942Z,0.00
2018-09-11T01:21:53.928Z,0.00
2018-09-11T01:22:53.916Z,0.00
2018-09-11T01:23:53.908Z,0.00
2018-09-11T01:24:53.882Z,0.00
2018-09-11T01:25:53.872Z,0.00
2018-09-11T01:26:53.856Z,0.00
2018-09-11T01:27:53.845Z,0.00
2018-09-11T01:28:53.828Z,0.00
2018-09-11T01:29:53.816Z,0.00
2018-09-11T01:30:53.803Z,0.00
2018-09-11T01:31:53.797Z,0.00
2018-09-11T01:32:53.775Z,0.00
2018-09-11T01:33:53.763Z,0.00
2018-09-11T01:34:53.745Z,0.00
2018-09-11T01:35:53.733Z,0.00
2018-09-11T01:36:53.719Z,0.00
2018-09-11T01:37:53.707Z,0.00
2018-09-11T01:38:53.701Z,0.00
2018-09-11T01:39:53.679Z,0.00
2018-09-11T01:40:53.666Z,0.00
2018-09-11T01:41:53.652Z,0.00
2018-09-11T01:42:53.647Z,0.00
2018-09-11T01:43:53.623Z,0.00
2018-09-11T01:44:53.609Z,0.00
2018-09-11T01:45:53.599Z,0.00
2018-09-11T01:46:53.582Z,0.00
2018-09-11T01:47:53.579Z,0.00
2018-09-11T01:48:53.557Z,0.00
2018-09-11T01:49:53.543Z,0.00
2018-09-11T01:50:53.531Z,0.00
2018-09-11T01:51:53.513Z,0.00
2018-09-11T01:52:53.499Z,0.00
2018-09-11T01:53:53.489Z,0.00
2018-09-11T01:54:53.474Z,0.00
2018-09-11T01:55:53.459Z,0.00
2018-09-11T01:56:53.445Z,0.00
2018-09-11T01:57:53.432Z,0.00
2018-09-11T01:58:53.416Z,0.00
2018-09-11T01:59:53.404Z,0.00
2018-09-11T02:00:53.390Z,0.00
2018-09-11T02:01:53.378Z,0.00
2018-09-11T02:02:53.366Z,0.00
2018-09-11T02:03:53.349Z,0.00
2018-09-11T02:04:53.335Z,0.00
2018-09-11T02:05:53.324Z,0.00
2018-09-11T02:06:53.315Z,0.00
2018-09-11T02:07:53.297Z,0.00
2018-09-11T02:08:53.284Z,0.00
2018-09-11T02:09:53.266Z,0.00
2018-09-11T02:10:53.253Z,0.00
2018-09-11T02:11:53.240Z,0.00
2018-09-11T02:12:53.223Z,0.00
2018-09-11T02:13:53.208Z,0.00
2018-09-11T02:14:53.196Z,0.00
2018-09-11T02:15:53.183Z,0.00
2018-09-11T02:16:53.169Z,0.00
2018-09-11T02:17:53.154Z,0.00
2018-09-11T02:18:53.140Z,0.00
2018-09-11T02:19:53.131Z,0.00
2018-09-11T02:20:53.113Z,0.00
2018-09-11T02:21:53.100Z,0.00
2018-09-11T02:22:53.086Z,0.00
2018-09-11T02:23:53.071Z,0.00
2018-09-11T02:24:53.057Z,0.00
2018-09-11T02:25:53.045Z,0.00
2018-09-11T02:26:53.028Z,0.00
2018-09-11T02:27:53.016Z,0.00
2018-09-11T02:28:53.003Z,0.00
2018-09-11T02:29:52.992Z,0.00
2018-09-11T02:30:52.981Z,0.00
2018-09-11T02:31:52.962Z,0.00
2018-09-11T02:32:52.946Z,0.00
2018-09-11T02:33:52.984Z,0.00
2018-09-11T02:34:52.924Z,0.00
2018-09-11T02:35:53.001Z,0.00
2018-09-11T02:36:52.889Z,0.00
2018-09-11T02:37:52.875Z,0.00
2018-09-11T02:38:52.860Z,0.00
2018-09-11T02:39:52.847Z,0.00
2018-09-11T02:40:52.833Z,0.00
2018-09-11T02:41:52.821Z,0.00
2018-09-11T02:42:52.805Z,0.00
2018-09-11T02:43:52.791Z,0.00
2018-09-11T02:44:52.776Z,0.00
2018-09-11T02:45:52.762Z,0.00
2018-09-11T02:46:52.748Z,0.00
2018-09-11T02:47:52.742Z,0.00
2018-09-11T02:48:52.720Z,0.00
2018-09-11T02:49:52.705Z,0.00
2018-09-11T02:50:52.690Z,0.00
2018-09-11T02:51:52.678Z,0.00
2018-09-11T02:52:52.661Z,0.00
2018-09-11T02:53:52.649Z,0.00
2018-09-11T02:54:52.638Z,0.00
2018-09-11T02:55:52.620Z,0.00
2018-09-11T02:56:52.607Z,0.00
2018-09-11T02:57:52.603Z,0.00
2018-09-11T02:58:52.577Z,0.00
2018-09-11T02:59:52.564Z,0.00
2018-09-11T03:00:52.550Z,0.00
2018-09-11T03:01:52.542Z,0.00
2018-09-11T03:02:52.525Z,0.00
2018-09-11T03:03:52.506Z,0.00
2018-09-11T03:04:52.494Z,0.00
2018-09-11T03:05:52.479Z,0.00
2018-09-11T03:06:52.464Z,0.00
2018-09-11T03:07:52.452Z,0.00
2018-09-11T03:08:52.438Z,0.00
2018-09-11T03:09:52.429Z,0.00
2018-09-11T03:10:52.414Z,0.00
2018-09-11T03:11:52.393Z,0.00
2018-09-11T03:12:52.382Z,0.00
2018-09-11T03:13:52.369Z,0.00
2018-09-11T03:14:52.352Z,0.00
2018-09-11T03:15:52.339Z,0.00
2018-09-11T03:16:52.323Z,0.00
2018-09-11T03:17:52.312Z,0.00
2018-09-11T03:18:52.389Z,0.00
2018-09-11T03:19:52.290Z,0.00
2018-09-11T03:20:52.272Z,0.00
2018-09-11T03:21:52.252Z,0.00
2018-09-11T03:22:52.237Z,0.00
2018-09-11T03:23:52.247Z,0.00
2018-09-11T03:24:52.207Z,0.00
2018-09-11T03:25:52.196Z,0.00
2018-09-11T03:26:52.181Z,0.00
2018-09-11T03:27:52.168Z,0.00
2018-09-11T03:28:52.151Z,0.00
2018-09-11T03:29:52.140Z,0.00
2018-09-11T03:30:52.147Z,0.00
2018-09-11T03:31:52.116Z,0.00
2018-09-11T03:32:52.102Z,0.00
2018-09-11T03:33:52.086Z,0.00
2018-09-11T03:34:52.083Z,0.00
2018-09-11T03:35:52.053Z,0.00
2018-09-11T03:36:52.040Z,0.00
2018-09-11T03:37:52.023Z,0.00
2018-09-11T03:38:52.022Z,0.00
2018-09-11T03:39:51.997Z,0.00
2018-09-11T03:40:51.981Z,0.00
2018-09-11T03:41:51.966Z,0.00
2018-09-11T03:42:51.954Z,0.00
2018-09-11T03:43:51.940Z,0.00
2018-09-11T03:44:51.928Z,0.00
2018-09-11T03:45:51.914Z,0.00
2018-09-11T03:46:51.894Z,0.00
2018-09-11T03:47:51.886Z,0.00
2018-09-11T03:48:51.869Z,0.00
2018-09-11T03:49:51.853Z,0.00
2018-09-11T03:50:51.842Z,0.00
2018-09-11T03:51:51.824Z,0.00
2018-09-11T03:52:51.812Z,0.00
2018-09-11T03:53:51.799Z,0.00
2018-09-11T03:54:51.781Z,0.00
2018-09-11T03:55:51.767Z,0.00
2018-09-11T03:56:51.756Z,0.00
2018-09-11T03:57:51.748Z,0.00
2018-09-11T03:58:51.723Z,0.00
2018-09-11T03:59:51.713Z,0.00
2018-09-11T04:00:51.695Z,0.00
2018-09-11T04:01:51.683Z,0.00
2018-09-11T04:02:51.666Z,0.00
2018-09-11T04:03:51.655Z,0.00
2018-09-11T04:04:51.658Z,0.00
2018-09-11T04:05:51.624Z,0.00
2018-09-11T04:06:51.609Z,0.00
2018-09-11T04:07:51.605Z,0.00
2018-09-11T04:08:51.579Z,0.00
2018-09-11T04:09:51.565Z,0.00
2018-09-11T04:10:51.551Z,0.00
2018-09-11T04:11:51.538Z,0.00
2018-09-11T04:12:51.519Z,0.00
2018-09-11T04:13:51.511Z,0.00
2018-09-11T04:14:51.492Z,0.00
2018-09-11T04:15:51.477Z,0.00
2018-09-11T04:16:51.463Z,0.00
2018-09-11T04:17:51.451Z,0.00
2018-09-11T04:18:51.438Z,0.00
2018-09-11T04:19:51.419Z,0.00
2018-09-11T04:20:51.415Z,0.00
2018-09-11T04:21:51.401Z,0.00
2018-09-11T04:22:51.378Z,0.00
2018-09-11T04:23:51.363Z,0.00
2018-09-11T04:24:51.348Z,0.00
2018-09-11T04:25:51.335Z,0.00
2018-09-11T04:26:51.319Z,0.00
2018-09-11T04:27:51.308Z,0.00
2018-09-11T04:28:51.290Z,0.00
2018-09-11T04:29:51.276Z,4.00
2018-09-11T04:30:51.262Z,4.00
2018-09-11T04:31:51.246Z,0.00
2018-09-11T04:32:51.239Z,4.00
2018-09-11T04:33:51.216Z,4.00
2018-09-11T04:34:51.206Z,4.00
2018-09-11T04:35:51.187Z,8.00
2018-09-11T04:36:51.178Z,4.00
2018-09-11T04:37:51.158Z,8.00
2018-09-11T04:38:51.147Z,12.00
2018-09-11T04:39:51.130Z,12.00
2018-09-11T04:40:51.112Z,12.00
2018-09-11T04:41:51.101Z,16.00
2018-09-11T04:42:51.092Z,20.00
2018-09-11T04:43:51.080Z,24.00
2018-09-11T04:44:51.057Z,20.00
2018-09-11T04:45:51.041Z,24.00
2018-09-11T04:46:51.028Z,28.00
2018-09-11T04:47:51.016Z,36.00
2018-09-11T04:48:50.998Z,36.00
2018-09-11T04:49:50.986Z,40.00
2018-09-11T04:50:50.970Z,44.00
2018-09-11T04:51:50.952Z,48.00
2018-09-11T04:52:50.944Z,52.00
2018-09-11T04:53:50.924Z,56.00
2018-09-11T04:54:50.913Z,64.00
2018-09-11T04:55:50.899Z,72.00
2018-09-11T04:56:50.890Z,76.00
2018-09-11T04:57:50.873Z,80.00
2018-09-11T04:58:50.864Z,88.00
2018-09-11T04:59:50.837Z,96.00
2018-09-11T05:00:50.833Z,108.00
2018-09-11T05:01:50.808Z,112.00
2018-09-11T05:02:50.884Z,132.00
2018-09-11T05:03:50.781Z,152.00
2018-09-11T05:04:50.774Z,164.00
2018-09-11T05:05:50.758Z,184.00
2018-09-11T05:06:50.752Z,208.00
2018-09-11T05:07:50.731Z,224.00
2018-09-11T05:08:50.716Z,224.00
2018-09-11T05:09:50.698Z,208.00
2018-09-11T05:10:50.673Z,216.00
2018-09-11T05:11:50.662Z,208.00
2018-09-11T05:12:50.649Z,232.00
2018-09-11T05:13:50.633Z,272.00
2018-09-11T05:14:50.627Z,316.00
2018-09-11T05:15:50.608Z,320.00
2018-09-11T05:16:50.589Z,336.00
2018-09-11T05:17:50.585Z,380.00
2018-09-11T05:18:50.560Z,400.00
2018-09-11T05:19:50.543Z,432.00
2018-09-11T05:20:50.531Z,496.00
2018-09-11T05:21:50.519Z,568.00
2018-09-11T05:22:50.501Z,632.00
2018-09-11T05:23:50.486Z,692.00
2018-09-11T05:24:50.471Z,752.00
2018-09-11T05:25:50.459Z,800.00
2018-09-11T05:26:50.441Z,848.00
2018-09-11T05:27:50.426Z,900.00
2018-09-11T05:28:50.409Z,972.00
2018-09-11T05:29:50.396Z,1044.00
2018-09-11T05:30:50.381Z,1124.00
2018-09-11T05:31:50.365Z,1188.00
2018-09-11T05:32:50.359Z,1228.00
2018-09-11T05:33:50.338Z,1308.00
2018-09-11T05:34:50.329Z,1384.00
2018-09-11T05:35:50.367Z,1512.00
2018-09-11T05:36:50.294Z,1628.00
2018-09-11T05:37:50.278Z,1724.00
2018-09-11T05:38:50.300Z,1824.00
2018-09-11T05:39:50.248Z,1960.00
2018-09-11T05:40:50.243Z,2036.00
2018-09-11T05:41:50.221Z,2060.00
2018-09-11T05:42:50.207Z,2072.00
2018-09-11T05:43:50.203Z,2144.00
2018-09-11T05:44:50.178Z,2252.00
2018-09-11T05:45:50.173Z,2380.00
2018-09-11T05:46:50.155Z,2456.00
2018-09-11T05:47:50.134Z,2492.00
2018-09-11T05:48:50.127Z,2584.00
2018-09-11T05:49:50.104Z,2644.00
2018-09-11T05:50:50.094Z,2708.00
2018-09-11T05:51:50.076Z,2740.00
2018-09-11T05:52:50.074Z,2784.00
2018-09-11T05:53:50.050Z,2816.00
2018-09-11T05:54:50.035Z,2828.00
2018-09-11T05:55:50.020Z,2880.00
2018-09-11T05:56:50.002Z,2868.00
2018-09-11T05:57:49.990Z,2856.00
2018-09-11T05:58:49.977Z,2840.00
2018-09-11T05:59:49.967Z,2656.00
2018-09-11T06:00:49.947Z,2448.00
2018-09-11T06:01:49.934Z,2536.00
2018-09-11T06:02:49.933Z,3188.00
2018-09-11T06:03:49.912Z,3888.00
2018-09-11T06:04:49.895Z,3960.00
2018-09-11T06:05:49.878Z,3548.00
2018-09-11T06:06:49.866Z,3324.00
2018-09-11T06:07:49.849Z,3312.00
2018-09-11T06:08:49.834Z,3348.00
2018-09-11T06:09:49.821Z,3760.00
2018-09-11T06:10:49.807Z,4264.00
2018-09-11T06:11:49.795Z,5020.00
2018-09-11T06:12:49.779Z,4988.00
2018-09-11T06:13:49.765Z,4232.00
2018-09-11T06:14:49.752Z,3864.00
2018-09-11T06:15:49.735Z,3792.00
2018-09-11T06:16:49.731Z,3976.00
2018-09-11T06:17:49.714Z,4444.00
2018-09-11T06:18:49.696Z,5000.00
2018-09-11T06:19:49.685Z,5256.00
2018-09-11T06:20:49.668Z,5064.00
2018-09-11T06:21:49.652Z,5172.00
2018-09-11T06:22:49.639Z,5232.00
2018-09-11T06:23:49.629Z,5104.00
2018-09-11T06:24:49.614Z,3964.00
2018-09-11T06:25:49.690Z,3108.00
2018-09-11T06:26:49.588Z,2832.00
2018-09-11T06:27:49.575Z,3012.00
2018-09-11T06:28:49.561Z,3204.00
2018-09-11T06:29:49.563Z,4636.00
2018-09-11T06:30:49.531Z,5056.00
2018-09-11T06:31:49.520Z,5288.00
2018-09-11T06:32:49.503Z,4896.00
2018-09-11T06:33:49.490Z,4984.00
2018-09-11T06:34:49.479Z,6196.00
2018-09-11T06:35:49.462Z,6280.00
2018-09-11T06:36:49.450Z,6768.00
2018-09-11T06:37:49.440Z,6600.00
2018-09-11T06:38:49.434Z,7172.00
2018-09-11T06:39:49.413Z,6508.00
2018-09-11T06:40:49.396Z,6416.00
2018-09-11T06:41:49.391Z,7568.00
2018-09-11T06:42:49.374Z,8356.00
2018-09-11T06:43:49.365Z,9024.00
2018-09-11T06:44:49.359Z,7968.00
2018-09-11T06:45:49.337Z,8732.00
2018-09-11T06:46:49.384Z,8108.00
2018-09-11T06:47:49.307Z,8692.00
2018-09-11T06:48:49.291Z,6908.00
2018-09-11T06:49:49.283Z,6268.00
2018-09-11T06:50:49.273Z,8304.00
2018-09-11T06:51:49.256Z,9096.00
2018-09-11T06:52:49.243Z,10880.00
2018-09-11T06:53:49.227Z,9140.00
2018-09-11T06:54:49.285Z,10252.00
2018-09-11T06:55:49.205Z,12692.00
2018-09-11T06:56:49.189Z,11076.00
2018-09-11T06:57:49.180Z,4288.00
2018-09-11T06:58:49.165Z,54112.00
2018-09-11T06:59:49.153Z,46592.00
2018-09-11T07:00:49.147Z,46656.00
2018-09-11T07:01:49.229Z,43744.00
2018-09-11T07:02:49.128Z,67584.00
2018-09-11T07:03:49.108Z,49056.00
2018-09-11T07:04:49.100Z,83456.00
2018-09-11T07:05:49.091Z,80000.00
2018-09-11T07:06:49.078Z,69088.00
2018-09-11T07:07:49.067Z,70944.00
2018-09-11T07:08:49.059Z,80800.00
2018-09-11T07:09:49.053Z,84320.00
2018-09-11T07:10:49.047Z,85248.00
2018-09-11T07:11:49.041Z,83360.00
2018-09-11T07:12:49.029Z,82272.00
2018-09-11T07:13:49.021Z,58656.00
2018-09-11T07:14:49.115Z,45248.00
2018-09-11T07:15:49.008Z,65888.00
2018-09-11T07:16:49.000Z,76416.00
2018-09-11T07:17:48.992Z,36800.00
2018-09-11T07:18:48.992Z,65280.00
2018-09-11T07:19:49.077Z,56736.00
2018-09-11T07:20:48.971Z,92800.00
2018-09-11T07:21:48.966Z,74624.00
2018-09-11T07:22:48.965Z,79712.00
2018-09-11T07:23:48.955Z,79008.00
2018-09-11T07:24:48.952Z,75136.00
2018-09-11T07:25:48.945Z,78144.00
2018-09-11T07:26:48.942Z,63648.00
2018-09-11T07:27:48.936Z,15880.00
2018-09-11T07:28:48.932Z,63328.00
2018-09-11T07:29:48.933Z,13524.00
2018-09-11T07:30:48.925Z,80960.00
2018-09-11T07:31:48.918Z,65280.00
2018-09-11T07:32:48.913Z,18144.00
2018-09-11T07:33:48.909Z,49152.00
2018-09-11T07:34:48.907Z,48480.00
2018-09-11T07:35:48.902Z,53824.00
2018-09-11T07:36:48.894Z,52608.00
2018-09-11T07:37:48.931Z,46080.00
2018-09-11T07:38:48.892Z,21856.00
2018-09-11T07:39:48.886Z,65728.00
2018-09-11T07:40:48.877Z,67776.00
2018-09-11T07:41:48.882Z,46784.00
2018-09-11T07:42:48.860Z,76000.00
2018-09-11T07:43:48.853Z,11920.00
2018-09-11T07:44:48.848Z,51808.00
2018-09-11T07:45:48.850Z,38784.00
2018-09-11T07:46:48.850Z,46304.00
2018-09-11T07:47:48.832Z,47008.00
2018-09-11T07:48:48.830Z,59808.00
2018-09-11T07:49:48.827Z,62944.00
2018-09-11T07:50:48.818Z,58112.00
2018-09-11T07:51:48.817Z,56544.00
2018-09-11T07:52:48.860Z,46656.00
2018-09-11T07:53:48.816Z,38432.00
2018-09-11T07:54:48.802Z,68352.00
2018-09-11T07:55:48.796Z,30272.00
2018-09-11T07:56:48.792Z,8188.00
2018-09-11T07:57:48.837Z,34848.00
2018-09-11T07:58:48.780Z,40992.00
2018-09-11T07:59:48.770Z,56160.00
2018-09-11T08:00:48.764Z,10544.00
2018-09-11T08:01:48.761Z,24160.00
2018-09-11T08:02:48.753Z,57696.00
2018-09-11T08:03:48.745Z,16640.00
2018-09-11T08:04:48.740Z,53120.00
2018-09-11T08:05:48.745Z,12748.00
2018-09-11T08:06:48.726Z,12704.00
2018-09-11T08:07:48.719Z,10048.00
2018-09-11T08:08:48.712Z,32672.00
2018-09-11T08:09:48.716Z,30304.00
2018-09-11T08:10:48.697Z,12128.00
2018-09-11T08:11:48.726Z,7564.00
2018-09-11T08:12:48.679Z,8204.00
2018-09-11T08:13:48.673Z,13444.00
2018-09-11T08:14:48.672Z,7092.00
2018-09-11T08:15:48.665Z,12512.00
2018-09-11T08:16:48.652Z,11168.00
2018-09-11T08:17:48.659Z,9392.00
2018-09-11T08:18:48.678Z,8720.00
2018-09-11T08:19:48.680Z,10272.00
2018-09-11T08:20:48.613Z,9744.00
2018-09-11T08:21:48.603Z,12548.00
2018-09-11T08:22:48.595Z,9060.00
2018-09-11T08:23:48.588Z,11928.00
2018-09-11T08:24:48.574Z,12544.00
2018-09-11T08:25:48.574Z,10316.00
2018-09-11T08:26:48.562Z,6668.00
2018-09-11T08:27:48.548Z,18560.00
2018-09-11T08:28:48.548Z,8888.00
2018-09-11T08:29:48.532Z,16800.00
2018-09-11T08:30:48.530Z,11772.00
2018-09-11T08:31:48.512Z,51008.00
2018-09-11T08:32:48.505Z,24864.00
2018-09-11T08:33:48.491Z,11340.00
2018-09-11T08:34:48.487Z,7944.00
2018-09-11T08:35:48.478Z,15560.00
2018-09-11T08:36:48.463Z,51648.00
2018-09-11T08:37:48.461Z,10248.00
2018-09-11T08:38:48.455Z,11652.00
2018-09-11T08:39:48.435Z,10300.00
2018-09-11T08:40:48.428Z,31392.00
2018-09-11T08:41:48.420Z,9852.00
2018-09-11T08:42:48.410Z,41888.00
2018-09-11T08:43:48.401Z,14060.00
2018-09-11T08:44:48.392Z,12016.00
2018-09-11T08:45:48.381Z,10320.00
2018-09-11T08:46:48.410Z,11620.00
2018-09-11T08:47:48.373Z,34272.00
2018-09-11T08:48:48.356Z,19552.00
2018-09-11T08:49:48.355Z,66336.00
2018-09-11T08:50:48.340Z,13552.00
2018-09-11T08:51:48.330Z,20128.00
2018-09-11T08:52:48.370Z,59104.00
2018-09-11T08:53:48.321Z,57664.00
2018-09-11T08:54:48.313Z,43904.00
2018-09-11T08:55:48.303Z,15284.00
2018-09-11T08:56:48.290Z,11376.00
2018-09-11T08:57:48.279Z,8996.00
2018-09-11T08:58:48.273Z,36416.00
2018-09-11T08:59:48.263Z,15712.00
2018-09-11T09:00:48.257Z,28064.00
2018-09-11T09:01:48.247Z,64448.00
2018-09-11T09:02:48.242Z,50240.00
2018-09-11T09:03:48.241Z,54336.00
2018-09-11T09:04:48.228Z,11808.00
2018-09-11T09:05:48.219Z,14692.00
2018-09-11T09:06:48.214Z,11856.00
2018-09-11T09:07:48.205Z,13116.00
2018-09-11T09:08:48.196Z,18176.00
2018-09-11T09:09:48.199Z,53216.00
2018-09-11T09:10:48.184Z,37568.00
2018-09-11T09:11:48.171Z,13948.00
2018-09-11T09:12:48.164Z,42368.00
2018-09-11T09:13:48.159Z,39520.00
2018-09-11T09:14:48.149Z,41920.00
2018-09-11T09:15:48.142Z,37984.00
2018-09-11T09:16:48.138Z,14728.00
2018-09-11T09:17:48.128Z,32064.00
2018-09-11T09:18:48.123Z,25792.00
2018-09-11T09:19:48.122Z,22144.00
2018-09-11T09:20:48.118Z,20992.00
2018-09-11T09:21:48.104Z,20128.00
2018-09-11T09:22:48.098Z,23232.00
2018-09-11T09:23:48.089Z,21504.00
2018-09-11T09:24:48.087Z,18976.00
2018-09-11T09:25:48.077Z,14096.00
2018-09-11T09:26:48.077Z,11132.00
2018-09-11T09:27:48.065Z,16256.00
2018-09-11T09:28:48.066Z,15584.00
2018-09-11T09:29:48.054Z,14820.00
2018-09-11T09:30:48.047Z,14652.00
2018-09-11T09:31:48.043Z,13536.00
2018-09-11T09:32:48.037Z,12116.00
2018-09-11T09:33:48.034Z,14272.00
2018-09-11T09:34:48.027Z,13108.00
2018-09-11T09:35:48.023Z,14120.00
2018-09-11T09:36:48.079Z,14548.00
2018-09-11T09:37:48.008Z,14020.00
2018-09-11T09:38:48.011Z,9428.00
2018-09-11T09:39:47.996Z,13432.00
2018-09-11T09:40:47.990Z,13600.00
2018-09-11T09:41:47.989Z,11856.00
2018-09-11T09:42:47.980Z,11996.00
2018-09-11T09:43:47.982Z,12036.00
2018-09-11T09:44:47.966Z,12396.00
2018-09-11T09:45:47.959Z,12276.00
2018-09-11T09:46:47.956Z,11972.00
2018-09-11T09:47:47.950Z,12388.00
2018-09-11T09:48:47.944Z,12272.00
2018-09-11T09:49:47.935Z,12588.00
2018-09-11T09:50:47.940Z,12348.00
2018-09-11T09:51:47.925Z,12056.00
2018-09-11T09:52:47.915Z,11928.00
2018-09-11T09:53:47.908Z,11656.00
2018-09-11T09:54:47.901Z,11912.00
2018-09-11T09:55:47.897Z,11188.00
2018-09-11T09:56:47.891Z,10788.00
2018-09-11T09:57:47.888Z,11212.00
2018-09-11T09:58:47.877Z,11216.00
2018-09-11T09:59:47.874Z,10964.00
2018-09-11T10:00:47.865Z,11240.00
2018-09-11T10:01:47.861Z,11356.00
2018-09-11T10:02:47.857Z,11368.00
2018-09-11T10:03:47.852Z,11452.00
2018-09-11T10:04:47.844Z,11784.00
2018-09-11T10:05:47.835Z,11504.00
2018-09-11T10:06:47.827Z,11272.00
2018-09-11T10:07:47.820Z,11228.00
2018-09-11T10:08:47.813Z,11164.00
2018-09-11T10:09:47.809Z,10256.00
2018-09-11T10:10:47.800Z,10432.00
2018-09-11T10:11:47.840Z,10316.00
2018-09-11T10:12:47.790Z,10272.00
2018-09-11T10:13:47.788Z,11032.00
2018-09-11T10:14:47.781Z,11056.00
2018-09-11T10:15:47.770Z,10864.00
2018-09-11T10:16:47.763Z,11128.00
2018-09-11T10:17:47.755Z,11136.00
2018-09-11T10:18:47.755Z,11008.00
2018-09-11T10:19:47.749Z,11368.00
2018-09-11T10:20:47.738Z,11120.00
2018-09-11T10:21:47.732Z,11268.00
2018-09-11T10:22:47.726Z,10828.00
2018-09-11T10:23:47.718Z,10880.00
2018-09-11T10:24:47.710Z,10872.00
2018-09-11T10:25:47.705Z,10496.00
2018-09-11T10:26:47.700Z,10832.00
2018-09-11T10:27:47.696Z,10880.00
2018-09-11T10:28:47.697Z,10816.00
2018-09-11T10:29:47.693Z,9932.00
2018-09-11T10:30:47.671Z,9168.00
2018-09-11T10:31:47.664Z,9712.00
2018-09-11T10:32:47.671Z,10184.00
2018-09-11T10:33:47.723Z,10160.00
2018-09-11T10:34:47.647Z,10408.00
2018-09-11T10:35:47.638Z,10816.00
2018-09-11T10:36:47.645Z,10064.00
2018-09-11T10:37:47.629Z,10632.00
2018-09-11T10:38:47.624Z,10328.00
2018-09-11T10:39:47.612Z,10052.00
2018-09-11T10:40:47.606Z,10064.00
2018-09-11T10:41:47.607Z,10028.00
2018-09-11T10:42:47.593Z,10060.00
2018-09-11T10:43:47.586Z,9852.00
2018-09-11T10:44:47.648Z,9920.00
2018-09-11T10:45:47.575Z,10028.00
2018-09-11T10:46:47.567Z,10184.00
2018-09-11T10:47:47.564Z,10104.00
2018-09-11T10:48:47.598Z,10088.00
2018-09-11T10:49:47.545Z,9996.00
2018-09-11T10:50:47.544Z,9524.00
2018-09-11T10:51:47.580Z,9736.00
2018-09-11T10:52:47.532Z,9452.00
2018-09-11T10:53:47.527Z,9280.00
2018-09-11T10:54:47.526Z,9168.00
2018-09-11T10:55:47.501Z,8716.00
2018-09-11T10:56:47.499Z,8864.00
2018-09-11T10:57:47.489Z,9068.00
2018-09-11T10:58:47.492Z,9104.00
2018-09-11T10:59:47.474Z,9252.00
2018-09-11T11:00:47.468Z,8824.00
2018-09-11T11:01:47.464Z,8620.00
2018-09-11T11:02:47.455Z,8696.00
2018-09-11T11:03:47.443Z,8876.00
2018-09-11T11:04:47.441Z,8036.00
2018-09-11T11:05:47.434Z,8552.00
2018-09-11T11:06:47.428Z,8828.00
2018-09-11T11:07:47.424Z,8804.00
2018-09-11T11:08:47.411Z,9140.00
2018-09-11T11:09:47.403Z,9136.00
2018-09-11T11:10:47.395Z,8892.00
2018-09-11T11:11:47.388Z,8740.00
2018-09-11T11:12:47.383Z,8892.00
2018-09-11T11:13:47.379Z,8400.00
2018-09-11T11:14:47.367Z,8848.00
2018-09-11T11:15:47.359Z,8268.00
2018-09-11T11:16:47.351Z,8780.00
2018-09-11T11:17:47.346Z,8404.00
2018-09-11T11:18:47.347Z,8860.00
2018-09-11T11:19:47.339Z,9144.00
2018-09-11T11:20:47.323Z,9144.00
2018-09-11T11:21:47.318Z,9172.00
2018-09-11T11:22:47.309Z,9116.00
2018-09-11T11:23:47.319Z,9012.00
2018-09-11T11:24:47.293Z,8980.00
2018-09-11T11:25:47.285Z,8848.00
2018-09-11T11:26:47.284Z,8736.00
2018-09-11T11:27:47.281Z,8708.00
2018-09-11T11:28:47.269Z,8752.00
2018-09-11T11:29:47.263Z,8516.00
2018-09-11T11:30:47.251Z,8704.00
2018-09-11T11:31:47.255Z,8932.00
2018-09-11T11:32:47.236Z,8752.00
2018-09-11T11:33:47.230Z,8384.00
2018-09-11T11:34:47.225Z,8920.00
2018-09-11T11:35:47.217Z,9040.00
2018-09-11T11:36:47.391Z,9088.00
2018-09-11T11:37:47.205Z,8976.00
2018-09-11T11:38:47.197Z,8732.00
2018-09-11T11:39:47.190Z,9028.00
2018-09-11T11:40:47.181Z,8188.00
2018-09-11T11:41:47.232Z,8552.00
2018-09-11T11:42:47.217Z,8892.00
2018-09-11T11:43:47.160Z,8448.00
2018-09-11T11:44:47.153Z,8276.00
2018-09-11T11:45:47.153Z,8300.00
2018-09-11T11:46:47.140Z,8256.00
2018-09-11T11:47:47.135Z,8152.00
2018-09-11T11:48:47.127Z,8324.00
2018-09-11T11:49:47.115Z,8764.00
2018-09-11T11:50:47.115Z,8896.00
2018-09-11T11:51:47.106Z,8980.00
2018-09-11T11:52:47.103Z,9192.00
2018-09-11T11:53:47.091Z,9256.00
2018-09-11T11:54:47.087Z,9296.00
2018-09-11T11:55:47.076Z,9308.00
2018-09-11T11:56:47.071Z,8868.00
2018-09-11T11:57:47.063Z,9244.00
2018-09-11T11:58:47.057Z,8996.00
2018-09-11T11:59:47.053Z,8880.00
2018-09-11T12:00:47.051Z,8896.00
2018-09-11T12:01:47.031Z,8532.00
2018-09-11T12:02:47.031Z,9220.00
2018-09-11T12:03:47.021Z,9156.00
2018-09-11T12:04:47.020Z,9440.00
2018-09-11T12:05:47.008Z,9056.00
2018-09-11T12:06:47.000Z,9108.00
2018-09-11T12:07:47.042Z,8732.00
2018-09-11T12:08:46.983Z,8828.00
2018-09-11T12:09:46.978Z,8256.00
2018-09-11T12:10:46.977Z,8520.00
2018-09-11T12:11:46.964Z,8788.00
2018-09-11T12:12:46.957Z,9176.00
2018-09-11T12:13:46.948Z,9032.00
2018-09-11T12:14:46.945Z,8508.00
2018-09-11T12:15:46.935Z,9060.00
2018-09-11T12:16:46.959Z,9108.00
2018-09-11T12:17:46.922Z,8612.00
2018-09-11T12:18:46.924Z,9088.00
2018-09-11T12:19:46.909Z,9264.00
2018-09-11T12:20:46.906Z,9140.00
2018-09-11T12:21:46.894Z,8952.00
2018-09-11T12:22:46.888Z,8864.00
2018-09-11T12:23:46.881Z,8784.00
2018-09-11T12:24:46.875Z,8884.00
2018-09-11T12:25:46.870Z,9048.00
2018-09-11T12:26:46.912Z,8900.00